MV Nord Discovery — 3EGP — position and weather

sailwx.info

Track history (hours):
 
Tides and Currents Weather Stations Pressure Air Temp Water Temp Dewpoint Dewpoint Depression Visibility Wind Speed Wind Dir Waves Ship Positions

MV Nord Discovery

Last reported at 2018-Apr-11 01:24 UTC. Time now 2018-Apr-19 21:20 UTC.
Position N 01°13' E 103°57'.
Warning: this ship's position is 8 days out of date.

Length 183 m; draft 6.9 m.

Type: Cargo ship. MMSI: 354855000.

Date/timePositionNaut miles runAvg speedWind from/ knotsBaromVisibWave heightAir tempDewpointWater temp
2018-Apr-11 01:24N 01°13' E 103°57'613.3
2018-Apr-11 00:59N 01°12' E 103°51'4 8.5
2018-Apr-11 00:30N 01°13' E 103°47'611.5
2018-Apr-11 00:00N 01°18' E 103°44'1 1.7
2018-Apr-10 23:30N 01°18' E 103°43'0 0.0
2018-Apr-10 23:00N 01°18' E 103°43'0 0.0
2018-Apr-10 22:30N 01°18' E 103°43'0 0.0
2018-Apr-10 21:59N 01°18' E 103°43'0 0.0
2018-Apr-10 21:29N 01°18' E 103°43'0 0.0
2018-Apr-10 20:56N 01°18' E 103°43'0 0.0
2018-Apr-10 20:29N 01°18' E 103°43'0 0.0
2018-Apr-10 19:59N 01°18' E 103°43'0 0.0
2018-Apr-10 19:29N 01°18' E 103°43'0 0.0
2018-Apr-10 18:59N 01°18' E 103°43'0 0.0
2018-Apr-10 18:29N 01°18' E 103°43'0 0.0
2018-Apr-10 17:59N 01°18' E 103°43'0 0.0
2018-Apr-10 17:29N 01°18' E 103°43'0 0.0
2018-Apr-10 16:59N 01°18' E 103°43'0 0.0
2018-Apr-10 16:26N 01°18' E 103°43'0 0.0
2018-Apr-10 15:59N 01°18' E 103°43'0 0.0
2018-Apr-10 15:29N 01°18' E 103°43'0 0.0
2018-Apr-10 14:59N 01°18' E 103°43'0 0.0
2018-Apr-10 14:26N 01°18' E 103°43'0 0.0
2018-Apr-10 13:56N 01°18' E 103°43'0 0.0
2018-Apr-10 13:29N 01°18' E 103°43'0 0.0
2018-Apr-10 12:59N 01°18' E 103°43'0 0.0
2018-Apr-10 12:29N 01°18' E 103°43'0 0.0
2018-Apr-10 11:59N 01°18' E 103°43'0 0.0
2018-Apr-10 11:29N 01°18' E 103°43'0 0.0
2018-Apr-10 10:59N 01°18' E 103°43'0 0.0
2018-Apr-10 10:29N 01°18' E 103°43'0 0.0
2018-Apr-10 09:53N 01°18' E 103°43'0 0.0
2018-Apr-10 09:29N 01°18' E 103°43'0 0.0
2018-Apr-10 08:59N 01°18' E 103°43'0 0.0
2018-Apr-10 08:29N 01°18' E 103°43'0 0.0
2018-Apr-10 07:59N 01°18' E 103°43'0 0.0
2018-Apr-10 07:29N 01°18' E 103°43'0 0.0
2018-Apr-10 06:59N 01°18' E 103°43'0 0.0
2018-Apr-10 06:29N 01°18' E 103°43'0 0.2
2018-Apr-10 05:59N 01°18' E 103°43'0 0.2
2018-Apr-10 05:29N 01°18' E 103°43'0 0.0
2018-Apr-10 04:59N 01°18' E 103°43'0 0.0
2018-Apr-10 04:29N 01°18' E 103°43'0 0.0
2018-Apr-10 03:59N 01°18' E 103°43'0 0.0
2018-Apr-10 03:29N 01°18' E 103°43'  
2018-Apr-05 10:12N 01°18' E 103°43'0 0.0
2018-Apr-05 09:57N 01°18' E 103°43'0 0.3
2018-Apr-05 09:30N 01°18' E 103°43'2 4.8
2018-Apr-05 09:00N 01°17' E 103°45'5 9.0
2018-Apr-05 08:30N 01°13' E 103°48'4 7.8
2018-Apr-05 08:00N 01°13' E 103°52'2 4.0
2018-Apr-05 07:27N 01°15' E 103°53'0 0.0
2018-Apr-05 06:54N 01°15' E 103°53'0 0.0
2018-Apr-05 06:27N 01°15' E 103°53'0 0.0
2018-Apr-05 05:54N 01°15' E 103°53'0 0.0
2018-Apr-05 05:30N 01°15' E 103°53'0 0.0
2018-Apr-05 05:00N 01°15' E 103°53'0 0.0
2018-Apr-05 03:24N 01°15' E 103°53'0 0.0
2018-Apr-05 03:00N 01°15' E 103°53'0 0.0
2018-Apr-05 02:30N 01°15' E 103°53'0 0.0
2018-Apr-05 01:51N 01°15' E 103°53'0 0.0
2018-Apr-05 01:27N 01°15' E 103°53'0 0.0
2018-Apr-05 01:00N 01°15' E 103°53'0 0.1
2018-Apr-05 00:30N 01°15' E 103°53'0 0.1
2018-Apr-05 00:00N 01°15' E 103°53'0 0.1
2018-Apr-04 23:30N 01°15' E 103°53'0 0.0
2018-Apr-04 22:57N 01°15' E 103°53'0 0.1
2018-Apr-04 22:30N 01°15' E 103°53'0 0.0
2018-Apr-04 22:00N 01°15' E 103°53'0 0.0
2018-Apr-04 21:24N 01°15' E 103°53'0 0.0
2018-Apr-04 21:00N 01°15' E 103°53'0 0.0
2018-Apr-04 20:30N 01°15' E 103°53'0 0.0
2018-Apr-04 20:00N 01°15' E 103°53'0 0.1
2018-Apr-04 19:30N 01°15' E 103°53'0 0.2
2018-Apr-04 18:57N 01°15' E 103°53'0 0.3
2018-Apr-04 18:30N 01°15' E 103°53'0 0.1
2018-Apr-04 18:00N 01°15' E 103°53'0 0.0
2018-Apr-04 17:27N 01°15' E 103°53'0 0.0
2018-Apr-04 17:00N 01°15' E 103°53'0 0.0
2018-Apr-04 16:24N 01°15' E 103°53'0 0.0
2018-Apr-04 16:00N 01°15' E 103°53'0 0.0
2018-Apr-04 15:30N 01°15' E 103°53'0 0.0
2018-Apr-04 14:57N 01°15' E 103°53'0 0.0
2018-Apr-04 14:24N 01°15' E 103°53'0 0.0
2018-Apr-04 13:57N 01°15' E 103°53'0 0.0
2018-Apr-04 13:30N 01°15' E 103°53'0 0.0
2018-Apr-04 13:00N 01°15' E 103°53'0 0.0
2018-Apr-04 12:30N 01°15' E 103°53'0 0.0
2018-Apr-04 12:00N 01°15' E 103°53'0 0.0
2018-Apr-04 10:03N 01°15' E 103°53'0 0.0
2018-Apr-04 09:39N 01°15' E 103°53'0 0.0
2018-Apr-04 09:27N 01°15' E 103°53'0 0.0
2018-Apr-04 08:48N 01°15' E 103°53'0 0.0
2018-Apr-04 08:27N 01°15' E 103°53'0 0.0
2018-Apr-04 07:57N 01°15' E 103°53'0 0.0
2018-Apr-04 07:21N 01°15' E 103°53'0 0.0
2018-Apr-04 06:54N 01°15' E 103°53'0 0.0
2018-Apr-04 06:30N 01°15' E 103°53'0 0.0
2018-Apr-04 06:00N 01°15' E 103°53'0 0.0
2018-Apr-04 05:30N 01°15' E 103°53'0 0.0
2018-Apr-04 05:00N 01°15' E 103°53'0 0.0
2018-Apr-04 04:30N 01°15' E 103°53'0 0.0
2018-Apr-04 04:00N 01°15' E 103°53'0 0.0
2018-Apr-04 03:30N 01°15' E 103°53'0 0.0
2018-Apr-04 02:54N 01°15' E 103°53'0 0.0
2018-Apr-04 02:30N 01°15' E 103°53'0 0.0
2018-Apr-04 01:57N 01°15' E 103°53'0 0.0
2018-Apr-04 01:30N 01°15' E 103°53'0 0.0
2018-Apr-04 00:57N 01°15' E 103°53'0 0.0
2018-Apr-04 00:30N 01°15' E 103°53'0 0.2
2018-Apr-04 00:00N 01°15' E 103°53'0 0.1
2018-Apr-03 23:30N 01°15' E 103°53'0 0.1
2018-Apr-03 23:00N 01°15' E 103°53'0 0.0
2018-Apr-03 22:30N 01°15' E 103°53'0 0.0
2018-Apr-03 22:00N 01°15' E 103°53'0 0.1
2018-Apr-03 21:30N 01°15' E 103°53'0 0.0
2018-Apr-03 21:00N 01°15' E 103°53'0 0.0
2018-Apr-03 20:30N 01°15' E 103°53'0 0.0
2018-Apr-03 19:57N 01°15' E 103°53'0 0.0
2018-Apr-03 19:21N 01°15' E 103°53'0 0.1
2018-Apr-03 19:00N 01°15' E 103°53'0 0.2
2018-Apr-03 18:30N 01°15' E 103°53'0 0.1
2018-Apr-03 18:00N 01°15' E 103°53'0 0.0
2018-Apr-03 17:30N 01°15' E 103°53'0 0.0
2018-Apr-03 17:00N 01°15' E 103°53'0 0.1
2018-Apr-03 16:30N 01°15' E 103°53'0 0.0
2018-Apr-03 15:57N 01°15' E 103°53'0 0.0
2018-Apr-03 15:27N 01°15' E 103°53'0 0.0
2018-Apr-03 15:00N 01°15' E 103°53'0 0.0
2018-Apr-03 14:27N 01°15' E 103°53'0 0.0
2018-Apr-03 14:00N 01°15' E 103°53'0 0.0
2018-Apr-03 13:30N 01°15' E 103°53'0 0.0
2018-Apr-03 13:00N 01°15' E 103°53'0 0.0
2018-Apr-03 12:18N 01°15' E 103°53'0 0.0
2018-Apr-03 11:48N 01°15' E 103°53'0 0.0
2018-Apr-03 11:24N 01°15' E 103°53'0 0.0
2018-Apr-03 10:45N 01°15' E 103°53'0 0.0
2018-Apr-03 08:33N 01°15' E 103°53'0 0.1
2018-Apr-03 08:30N 01°15' E 103°53'0 0.0
2018-Apr-03 06:09N 01°15' E 103°53'0 0.0
2018-Apr-03 06:00N 01°15' E 103°53'0 0.0
2018-Apr-03 05:09N 01°15' E 103°53'0 0.0
2018-Apr-03 05:00N 01°15' E 103°53'0 0.0
2018-Apr-03 04:15N 01°15' E 103°53'0 0.0
2018-Apr-03 04:00N 01°15' E 103°53'0 0.0
2018-Apr-03 03:27N 01°15' E 103°53'0 0.0
2018-Apr-03 02:39N 01°15' E 103°53'0 0.0
2018-Apr-03 02:30N 01°15' E 103°53'0 0.0
2018-Apr-03 02:00N 01°15' E 103°53'0 0.0
2018-Apr-03 01:30N 01°15' E 103°53'0 0.0
2018-Apr-03 01:00N 01°15' E 103°53'0 0.0
2018-Apr-03 00:27N 01°15' E 103°53'0 0.0
2018-Apr-02 23:57N 01°15' E 103°53'0 0.2
2018-Apr-02 23:30N 01°15' E 103°53'0 0.1
2018-Apr-02 22:48N 01°15' E 103°53'0 0.0
2018-Apr-02 22:30N 01°15' E 103°53'0 0.0
2018-Apr-02 22:00N 01°15' E 103°53'0 0.0
2018-Apr-02 21:30N 01°15' E 103°53'0 0.1
2018-Apr-02 21:00N 01°15' E 103°53'0 0.0
2018-Apr-02 20:30N 01°15' E 103°53'0 0.0
2018-Apr-02 20:00N 01°15' E 103°53'0 0.0
2018-Apr-02 18:54N 01°15' E 103°53'0 0.1
2018-Apr-02 18:30N 01°15' E 103°53'0 0.2
2018-Apr-02 18:00N 01°15' E 103°53'0 0.1
2018-Apr-02 17:30N 01°15' E 103°53'0 0.0
2018-Apr-02 16:54N 01°15' E 103°53'0 0.0
2018-Apr-02 16:30N 01°15' E 103°53'0 0.1
2018-Apr-02 15:57N 01°15' E 103°53'0 0.0
2018-Apr-02 15:30N 01°15' E 103°53'0 0.0
2018-Apr-02 15:00N 01°15' E 103°53'0 0.0
2018-Apr-02 14:21N 01°15' E 103°53'0 0.0
2018-Apr-02 13:33N 01°15' E 103°53'0 0.0
2018-Apr-02 13:30N 01°15' E 103°53'0 0.0
2018-Apr-02 12:36N 01°15' E 103°53'0 0.0
2018-Apr-02 12:21N 01°15' E 103°53'0 0.0
2018-Apr-02 11:57N 01°15' E 103°53'0 0.2
2018-Apr-02 11:21N 01°15' E 103°53'0 0.2
2018-Apr-02 11:00N 01°15' E 103°53'0 0.1
2018-Apr-02 10:30N 01°15' E 103°53'0 0.0
2018-Apr-02 09:45N 01°15' E 103°53'0 0.0
2018-Apr-02 09:30N 01°15' E 103°53'0 0.0
2018-Apr-02 08:51N 01°15' E 103°53'0 0.0
2018-Apr-02 08:21N 01°15' E 103°53'0 0.0
2018-Apr-02 08:00N 01°15' E 103°53'0 0.0
2018-Apr-02 07:30N 01°15' E 103°53'0 0.2
2018-Apr-02 07:00N 01°15' E 103°53'0 0.1
2018-Apr-02 06:24N 01°15' E 103°53'0 0.0
2018-Apr-02 06:00N 01°15' E 103°53'0 0.1
2018-Apr-02 05:30N 01°15' E 103°53'0 0.0
2018-Apr-02 04:42N 01°15' E 103°53'0 0.0
2018-Apr-02 04:27N 01°15' E 103°53'0 0.0
2018-Apr-02 03:57N 01°15' E 103°53'0 0.0
2018-Apr-02 03:30N 01°15' E 103°53'0 0.0
2018-Apr-02 03:00N 01°15' E 103°53'0 0.0
2018-Apr-02 02:27N 01°15' E 103°53'0 0.0
2018-Apr-02 02:00N 01°15' E 103°53'0 0.0
2018-Apr-02 01:27N 01°15' E 103°53'0 0.0
2018-Apr-02 00:45N 01°15' E 103°53'0 0.0
2018-Apr-02 00:27N 01°15' E 103°53'0 0.0
2018-Apr-01 23:51N 01°15' E 103°53'0 0.3
2018-Apr-01 23:30N 01°15' E 103°53'0 0.2
2018-Apr-01 23:00N 01°15' E 103°53'0 0.1
2018-Apr-01 22:27N 01°15' E 103°53'0 0.1
2018-Apr-01 22:00N 01°15' E 103°53'0 0.0
2018-Apr-01 21:30N 01°15' E 103°53'0 0.0
2018-Apr-01 21:00N 01°15' E 103°53'0 0.0
2018-Apr-01 20:30N 01°15' E 103°53'0 0.0
2018-Apr-01 20:00N 01°15' E 103°53'0 0.0
2018-Apr-01 19:27N 01°15' E 103°53'0 0.0
2018-Apr-01 19:00N 01°15' E 103°53'0 0.1
2018-Apr-01 18:27N 01°15' E 103°53'0 0.2
2018-Apr-01 18:00N 01°15' E 103°53'0 0.1
2018-Apr-01 17:30N 01°15' E 103°53'0 0.1
2018-Apr-01 16:57N 01°15' E 103°53'0 0.0
2018-Apr-01 16:30N 01°15' E 103°53'0 0.1
2018-Apr-01 16:00N 01°15' E 103°53'0 0.0
2018-Apr-01 15:30N 01°15' E 103°53'0 0.0
2018-Apr-01 15:00N 01°15' E 103°53'0 0.0
2018-Apr-01 14:30N 01°15' E 103°53'0 0.0
2018-Apr-01 13:57N 01°15' E 103°53'0 0.0
2018-Apr-01 13:30N 01°15' E 103°53'0 0.1
2018-Apr-01 11:21N 01°15' E 103°53'0 0.0
2018-Apr-01 09:09N 01°15' E 103°53'0 0.2
2018-Apr-01 08:54N 01°15' E 103°53'0 0.0
2018-Apr-01 06:39N 01°15' E 103°53'0 0.4
2018-Apr-01 06:30N 01°15' E 103°53'0 0.2
2018-Apr-01 05:24N 01°15' E 103°53'0 0.0
2018-Apr-01 04:54N 01°15' E 103°53'0 0.0
2018-Apr-01 04:27N 01°15' E 103°53'0 0.0
2018-Apr-01 03:57N 01°15' E 103°53'0 0.0
2018-Apr-01 03:27N 01°15' E 103°53'0 0.0
2018-Apr-01 02:51N 01°15' E 103°53'0 0.0
2018-Apr-01 02:30N 01°15' E 103°53'0 0.0
2018-Apr-01 01:39N 01°15' E 103°53'0 0.0
2018-Apr-01 01:30N 01°15' E 103°53'  
Track history (hours):
 
Tides and Currents Weather Stations Pressure Air Temp Water Temp Dewpoint Dewpoint Depression Visibility Wind Speed Wind Dir Waves Ship Positions

MV Nord Discovery

Last reported at 2018-Apr-11 01:24 UTC. Time now 2018-Apr-19 21:20 UTC.
Position N 01°13' E 103°57'.
Warning: this ship's position is 8 days out of date.

Length 183 m; draft 6.9 m.

Type: Cargo ship. MMSI: 354855000.

Date/timePositionNaut miles runAvg speedWind from/ knotsBaromVisibWave heightAir tempDewpointWater temp
2018-Apr-11 01:24N 01°13' E 103°57'613.3
2018-Apr-11 00:59N 01°12' E 103°51'4 8.5
2018-Apr-11 00:30N 01°13' E 103°47'611.5
2018-Apr-11 00:00N 01°18' E 103°44'1 1.7
2018-Apr-10 23:30N 01°18' E 103°43'0 0.0
2018-Apr-10 23:00N 01°18' E 103°43'0 0.0
2018-Apr-10 22:30N 01°18' E 103°43'0 0.0
2018-Apr-10 21:59N 01°18' E 103°43'0 0.0
2018-Apr-10 21:29N 01°18' E 103°43'0 0.0
2018-Apr-10 20:56N 01°18' E 103°43'0 0.0
2018-Apr-10 20:29N 01°18' E 103°43'0 0.0
2018-Apr-10 19:59N 01°18' E 103°43'0 0.0
2018-Apr-10 19:29N 01°18' E 103°43'0 0.0
2018-Apr-10 18:59N 01°18' E 103°43'0 0.0
2018-Apr-10 18:29N 01°18' E 103°43'0 0.0
2018-Apr-10 17:59N 01°18' E 103°43'0 0.0
2018-Apr-10 17:29N 01°18' E 103°43'0 0.0
2018-Apr-10 16:59N 01°18' E 103°43'0 0.0
2018-Apr-10 16:26N 01°18' E 103°43'0 0.0
2018-Apr-10 15:59N 01°18' E 103°43'0 0.0
2018-Apr-10 15:29N 01°18' E 103°43'0 0.0
2018-Apr-10 14:59N 01°18' E 103°43'0 0.0
2018-Apr-10 14:26N 01°18' E 103°43'0 0.0
2018-Apr-10 13:56N 01°18' E 103°43'0 0.0
2018-Apr-10 13:29N 01°18' E 103°43'0 0.0
2018-Apr-10 12:59N 01°18' E 103°43'0 0.0
2018-Apr-10 12:29N 01°18' E 103°43'0 0.0
2018-Apr-10 11:59N 01°18' E 103°43'0 0.0
2018-Apr-10 11:29N 01°18' E 103°43'0 0.0
2018-Apr-10 10:59N 01°18' E 103°43'0 0.0
2018-Apr-10 10:29N 01°18' E 103°43'0 0.0
2018-Apr-10 09:53N 01°18' E 103°43'0 0.0
2018-Apr-10 09:29N 01°18' E 103°43'0 0.0
2018-Apr-10 08:59N 01°18' E 103°43'0 0.0
2018-Apr-10 08:29N 01°18' E 103°43'0 0.0
2018-Apr-10 07:59N 01°18' E 103°43'0 0.0
2018-Apr-10 07:29N 01°18' E 103°43'0 0.0
2018-Apr-10 06:59N 01°18' E 103°43'0 0.0
2018-Apr-10 06:29N 01°18' E 103°43'0 0.2
2018-Apr-10 05:59N 01°18' E 103°43'0 0.2
2018-Apr-10 05:29N 01°18' E 103°43'0 0.0
2018-Apr-10 04:59N 01°18' E 103°43'0 0.0
2018-Apr-10 04:29N 01°18' E 103°43'0 0.0
2018-Apr-10 03:59N 01°18' E 103°43'0 0.0
2018-Apr-10 03:29N 01°18' E 103°43'  
2018-Apr-05 10:12N 01°18' E 103°43'0 0.0
2018-Apr-05 09:57N 01°18' E 103°43'0 0.3
2018-Apr-05 09:30N 01°18' E 103°43'2 4.8
2018-Apr-05 09:00N 01°17' E 103°45'5 9.0
2018-Apr-05 08:30N 01°13' E 103°48'4 7.8
2018-Apr-05 08:00N 01°13' E 103°52'2 4.0
2018-Apr-05 07:27N 01°15' E 103°53'0 0.0
2018-Apr-05 06:54N 01°15' E 103°53'0 0.0
2018-Apr-05 06:27N 01°15' E 103°53'0 0.0
2018-Apr-05 05:54N 01°15' E 103°53'0 0.0
2018-Apr-05 05:30N 01°15' E 103°53'0 0.0
2018-Apr-05 05:00N 01°15' E 103°53'0 0.0
2018-Apr-05 03:24N 01°15' E 103°53'0 0.0
2018-Apr-05 03:00N 01°15' E 103°53'0 0.0
2018-Apr-05 02:30N 01°15' E 103°53'0 0.0
2018-Apr-05 01:51N 01°15' E 103°53'0 0.0
2018-Apr-05 01:27N 01°15' E 103°53'0 0.0
2018-Apr-05 01:00N 01°15' E 103°53'0 0.1
2018-Apr-05 00:30N 01°15' E 103°53'0 0.1
2018-Apr-05 00:00N 01°15' E 103°53'0 0.1
2018-Apr-04 23:30N 01°15' E 103°53'0 0.0
2018-Apr-04 22:57N 01°15' E 103°53'0 0.1
2018-Apr-04 22:30N 01°15' E 103°53'0 0.0
2018-Apr-04 22:00N 01°15' E 103°53'0 0.0
2018-Apr-04 21:24N 01°15' E 103°53'0 0.0
2018-Apr-04 21:00N 01°15' E 103°53'0 0.0
2018-Apr-04 20:30N 01°15' E 103°53'0 0.0
2018-Apr-04 20:00N 01°15' E 103°53'0 0.1
2018-Apr-04 19:30N 01°15' E 103°53'0 0.2
2018-Apr-04 18:57N 01°15' E 103°53'0 0.3
2018-Apr-04 18:30N 01°15' E 103°53'0 0.1
2018-Apr-04 18:00N 01°15' E 103°53'0 0.0
2018-Apr-04 17:27N 01°15' E 103°53'0 0.0
2018-Apr-04 17:00N 01°15' E 103°53'0 0.0
2018-Apr-04 16:24N 01°15' E 103°53'0 0.0
2018-Apr-04 16:00N 01°15' E 103°53'0 0.0
2018-Apr-04 15:30N 01°15' E 103°53'0 0.0
2018-Apr-04 14:57N 01°15' E 103°53'0 0.0
2018-Apr-04 14:24N 01°15' E 103°53'0 0.0
2018-Apr-04 13:57N 01°15' E 103°53'0 0.0
2018-Apr-04 13:30N 01°15' E 103°53'0 0.0
2018-Apr-04 13:00N 01°15' E 103°53'0 0.0
2018-Apr-04 12:30N 01°15' E 103°53'0 0.0
2018-Apr-04 12:00N 01°15' E 103°53'0 0.0
2018-Apr-04 10:03N 01°15' E 103°53'0 0.0
2018-Apr-04 09:39N 01°15' E 103°53'0 0.0
2018-Apr-04 09:27N 01°15' E 103°53'0 0.0
2018-Apr-04 08:48N 01°15' E 103°53'0 0.0
2018-Apr-04 08:27N 01°15' E 103°53'0 0.0
2018-Apr-04 07:57N 01°15' E 103°53'0 0.0
2018-Apr-04 07:21N 01°15' E 103°53'0 0.0
2018-Apr-04 06:54N 01°15' E 103°53'0 0.0
2018-Apr-04 06:30N 01°15' E 103°53'0 0.0
2018-Apr-04 06:00N 01°15' E 103°53'0 0.0
2018-Apr-04 05:30N 01°15' E 103°53'0 0.0
2018-Apr-04 05:00N 01°15' E 103°53'0 0.0
2018-Apr-04 04:30N 01°15' E 103°53'0 0.0
2018-Apr-04 04:00N 01°15' E 103°53'0 0.0
2018-Apr-04 03:30N 01°15' E 103°53'0 0.0
2018-Apr-04 02:54N 01°15' E 103°53'0 0.0
2018-Apr-04 02:30N 01°15' E 103°53'0 0.0
2018-Apr-04 01:57N 01°15' E 103°53'0 0.0
2018-Apr-04 01:30N 01°15' E 103°53'0 0.0
2018-Apr-04 00:57N 01°15' E 103°53'0 0.0
2018-Apr-04 00:30N 01°15' E 103°53'0 0.2
2018-Apr-04 00:00N 01°15' E 103°53'0 0.1
2018-Apr-03 23:30N 01°15' E 103°53'0 0.1
2018-Apr-03 23:00N 01°15' E 103°53'0 0.0
2018-Apr-03 22:30N 01°15' E 103°53'0 0.0
2018-Apr-03 22:00N 01°15' E 103°53'0 0.1
2018-Apr-03 21:30N 01°15' E 103°53'0 0.0
2018-Apr-03 21:00N 01°15' E 103°53'0 0.0
2018-Apr-03 20:30N 01°15' E 103°53'0 0.0
2018-Apr-03 19:57N 01°15' E 103°53'0 0.0
2018-Apr-03 19:21N 01°15' E 103°53'0 0.1
2018-Apr-03 19:00N 01°15' E 103°53'0 0.2
2018-Apr-03 18:30N 01°15' E 103°53'0 0.1
2018-Apr-03 18:00N 01°15' E 103°53'0 0.0
2018-Apr-03 17:30N 01°15' E 103°53'0 0.0
2018-Apr-03 17:00N 01°15' E 103°53'0 0.1
2018-Apr-03 16:30N 01°15' E 103°53'0 0.0
2018-Apr-03 15:57N 01°15' E 103°53'0 0.0
2018-Apr-03 15:27N 01°15' E 103°53'0 0.0
2018-Apr-03 15:00N 01°15' E 103°53'0 0.0
2018-Apr-03 14:27N 01°15' E 103°53'0 0.0
2018-Apr-03 14:00N 01°15' E 103°53'0 0.0
2018-Apr-03 13:30N 01°15' E 103°53'0 0.0
2018-Apr-03 13:00N 01°15' E 103°53'0 0.0
2018-Apr-03 12:18N 01°15' E 103°53'0 0.0
2018-Apr-03 11:48N 01°15' E 103°53'0 0.0
2018-Apr-03 11:24N 01°15' E 103°53'0 0.0
2018-Apr-03 10:45N 01°15' E 103°53'0 0.0
2018-Apr-03 08:33N 01°15' E 103°53'0 0.1
2018-Apr-03 08:30N 01°15' E 103°53'0 0.0
2018-Apr-03 06:09N 01°15' E 103°53'0 0.0
2018-Apr-03 06:00N 01°15' E 103°53'0 0.0
2018-Apr-03 05:09N 01°15' E 103°53'0 0.0
2018-Apr-03 05:00N 01°15' E 103°53'0 0.0
2018-Apr-03 04:15N 01°15' E 103°53'0 0.0
2018-Apr-03 04:00N 01°15' E 103°53'0 0.0
2018-Apr-03 03:27N 01°15' E 103°53'0 0.0
2018-Apr-03 02:39N 01°15' E 103°53'0 0.0
2018-Apr-03 02:30N 01°15' E 103°53'0 0.0
2018-Apr-03 02:00N 01°15' E 103°53'0 0.0
2018-Apr-03 01:30N 01°15' E 103°53'0 0.0
2018-Apr-03 01:00N 01°15' E 103°53'0 0.0
2018-Apr-03 00:27N 01°15' E 103°53'0 0.0
2018-Apr-02 23:57N 01°15' E 103°53'0 0.2
2018-Apr-02 23:30N 01°15' E 103°53'0 0.1
2018-Apr-02 22:48N 01°15' E 103°53'0 0.0
2018-Apr-02 22:30N 01°15' E 103°53'0 0.0
2018-Apr-02 22:00N 01°15' E 103°53'0 0.0
2018-Apr-02 21:30N 01°15' E 103°53'0 0.1
2018-Apr-02 21:00N 01°15' E 103°53'0 0.0
2018-Apr-02 20:30N 01°15' E 103°53'0 0.0
2018-Apr-02 20:00N 01°15' E 103°53'0 0.0
2018-Apr-02 18:54N 01°15' E 103°53'0 0.1
2018-Apr-02 18:30N 01°15' E 103°53'0 0.2
2018-Apr-02 18:00N 01°15' E 103°53'0 0.1
2018-Apr-02 17:30N 01°15' E 103°53'0 0.0
2018-Apr-02 16:54N 01°15' E 103°53'0 0.0
2018-Apr-02 16:30N 01°15' E 103°53'0 0.1
2018-Apr-02 15:57N 01°15' E 103°53'0 0.0
2018-Apr-02 15:30N 01°15' E 103°53'0 0.0
2018-Apr-02 15:00N 01°15' E 103°53'0 0.0
2018-Apr-02 14:21N 01°15' E 103°53'0 0.0
2018-Apr-02 13:33N 01°15' E 103°53'0 0.0
2018-Apr-02 13:30N 01°15' E 103°53'0 0.0
2018-Apr-02 12:36N 01°15' E 103°53'0 0.0
2018-Apr-02 12:21N 01°15' E 103°53'0 0.0
2018-Apr-02 11:57N 01°15' E 103°53'0 0.2
2018-Apr-02 11:21N 01°15' E 103°53'0 0.2
2018-Apr-02 11:00N 01°15' E 103°53'0 0.1
2018-Apr-02 10:30N 01°15' E 103°53'0 0.0
2018-Apr-02 09:45N 01°15' E 103°53'0 0.0
2018-Apr-02 09:30N 01°15' E 103°53'0 0.0
2018-Apr-02 08:51N 01°15' E 103°53'0 0.0
2018-Apr-02 08:21N 01°15' E 103°53'0 0.0
2018-Apr-02 08:00N 01°15' E 103°53'0 0.0
2018-Apr-02 07:30N 01°15' E 103°53'0 0.2
2018-Apr-02 07:00N 01°15' E 103°53'0 0.1
2018-Apr-02 06:24N 01°15' E 103°53'0 0.0
2018-Apr-02 06:00N 01°15' E 103°53'0 0.1
2018-Apr-02 05:30N 01°15' E 103°53'0 0.0
2018-Apr-02 04:42N 01°15' E 103°53'0 0.0
2018-Apr-02 04:27N 01°15' E 103°53'0 0.0
2018-Apr-02 03:57N 01°15' E 103°53'0 0.0
2018-Apr-02 03:30N 01°15' E 103°53'0 0.0
2018-Apr-02 03:00N 01°15' E 103°53'0 0.0
2018-Apr-02 02:27N 01°15' E 103°53'0 0.0
2018-Apr-02 02:00N 01°15' E 103°53'0 0.0
2018-Apr-02 01:27N 01°15' E 103°53'0 0.0
2018-Apr-02 00:45N 01°15' E 103°53'0 0.0
2018-Apr-02 00:27N 01°15' E 103°53'0 0.0
2018-Apr-01 23:51N 01°15' E 103°53'0 0.3
2018-Apr-01 23:30N 01°15' E 103°53'0 0.2
2018-Apr-01 23:00N 01°15' E 103°53'0 0.1
2018-Apr-01 22:27N 01°15' E 103°53'0 0.1
2018-Apr-01 22:00N 01°15' E 103°53'0 0.0
2018-Apr-01 21:30N 01°15' E 103°53'0 0.0
2018-Apr-01 21:00N 01°15' E 103°53'0 0.0
2018-Apr-01 20:30N 01°15' E 103°53'0 0.0
2018-Apr-01 20:00N 01°15' E 103°53'0 0.0
2018-Apr-01 19:27N 01°15' E 103°53'0 0.0
2018-Apr-01 19:00N 01°15' E 103°53'0 0.1
2018-Apr-01 18:27N 01°15' E 103°53'0 0.2
2018-Apr-01 18:00N 01°15' E 103°53'0 0.1
2018-Apr-01 17:30N 01°15' E 103°53'0 0.1
2018-Apr-01 16:57N 01°15' E 103°53'0 0.0
2018-Apr-01 16:30N 01°15' E 103°53'0 0.1
2018-Apr-01 16:00N 01°15' E 103°53'0 0.0
2018-Apr-01 15:30N 01°15' E 103°53'0 0.0
2018-Apr-01 15:00N 01°15' E 103°53'0 0.0
2018-Apr-01 14:30N 01°15' E 103°53'0 0.0
2018-Apr-01 13:57N 01°15' E 103°53'0 0.0
2018-Apr-01 13:30N 01°15' E 103°53'0 0.1
2018-Apr-01 11:21N 01°15' E 103°53'0 0.0
2018-Apr-01 09:09N 01°15' E 103°53'0 0.2
2018-Apr-01 08:54N 01°15' E 103°53'0 0.0
2018-Apr-01 06:39N 01°15' E 103°53'0 0.4
2018-Apr-01 06:30N 01°15' E 103°53'0 0.2
2018-Apr-01 05:24N 01°15' E 103°53'0 0.0
2018-Apr-01 04:54N 01°15' E 103°53'0 0.0
2018-Apr-01 04:27N 01°15' E 103°53'0 0.0
2018-Apr-01 03:57N 01°15' E 103°53'0 0.0
2018-Apr-01 03:27N 01°15' E 103°53'0 0.0
2018-Apr-01 02:51N 01°15' E 103°53'0 0.0
2018-Apr-01 02:30N 01°15' E 103°53'0 0.0
2018-Apr-01 01:39N 01°15' E 103°53'0 0.0
2018-Apr-01 01:30N 01°15' E 103°53'  

Dump ship's entire track history